Meteo Giornale » Osservazioni meteo Stati Uniti (USA) » Pierre
ore: 03:53 - Osservazioni Meteo Pierre
Lat. 44° 22' N Lon. 100° 17' W Alt. 531 metri s.l.m.
16 °C
Sereno
Temp. 24 Ore
13 °C
30 °C
Nord
5.5 Km/h
Dew point 11 °C
Umidità 72 %
Visibilità 10 Km
Il sole sorge alle ore 07:04
Il sole tramonta alle ore 20:17
| Data e Ora | Cielo e Fenomeni | T °C | DP °C | Um. % | Pres. hPa | Vis. km | Vento km/h | |
|---|---|---|---|---|---|---|---|---|
| Oggi h: 03:53 | Sereno | 16 | 11 | 72 | 1014 | 10 | N 5.5 | |
| Oggi h: 02:53 | Sereno | 17 | 12 | 72 | 1014 | 10 | N/NE 11.1 | |
| Oggi h: 01:53 | Sereno | 17 | 12 | 72 | 1014 | 10 | N 0 | |
| Oggi h: 00:53 | Sereno | 18 | 12 | 67 | 1015 | 10 | NE 7.4 | |
| Ieri h: 23:53 | Sereno | 18 | 13 | 72 | 1015 | 10 | N 11.1 | |
| Ieri h: 22:53 | Sereno | 18 | 13 | 72 | 1014 | 10 | N 5.5 | |
| Ieri h: 21:53 | Sereno | 21 | 13 | 60 | 1013 | 10 | N 0 | |
| Ieri h: 20:53 | Sereno | 22 | 13 | 56 | 1012 | 10 | E 9.3 | |
| Ieri h: 19:53 | Sereno | 25 | 12 | 44 | 1012 | 10 | SE 13 | |
| Ieri h: 18:53 | Sereno | 29 | 12 | 35 | 1012 | 10 | N 0 | |
| Ieri h: 17:53 | Sereno | 29 | 11 | 32 | 1012 | 10 | N 5.5 | |
| Ieri h: 16:53 | Sereno | 30 | 11 | 30 | 1012 | 10 | N 5.5 | |
| Ieri h: 15:53 | Sereno | 30 | 9 | 27 | 1012 | 10 | S/SO 13 | |
| Ieri h: 14:53 | Sereno | 29 | 7 | 25 | 1013 | 10 | N 0 | |
| Ieri h: 13:53 | Sereno | 28 | 6 | 24 | 1014 | 10 | O/NO 11.1 | |
| Ieri h: 12:53 | Sereno | 26 | 9 | 34 | 1014 | 10 | N 7.4 | |
| Ieri h: 11:53 | Sereno | 24 | 11 | 43 | 1015 | 10 | O 9.3 | |
| Ieri h: 10:53 | Sereno | 21 | 11 | 52 | 1015 | 10 | SO 9.3 | |
| Ieri h: 09:53 | Sereno | 18 | 12 | 67 | 1015 | 10 | N 0 | |
| Ieri h: 08:53 | Sereno | 15 | 11 | 76 | 1015 | 10 | O 7.4 | |
| Ieri h: 07:53 | Sereno | 13 | 11 | 87 | 1014 | 10 | O/SO 11.1 | |
| Ieri h: 06:53 | Sereno | 13 | 11 | 87 | 1013 | 10 | O 11.1 | |
| Ieri h: 05:53 | Sereno | 13 | 11 | 87 | 1012 | 10 | O 13 | |
| Ieri h: 04:53 | Sereno | 14 | 11 | 82 | 1012 | 10 | O/NO 14.8 | |



